Time;durP1;ratioP1;P1;durP2;ratioP2;P2;SDS_P1;SDS_P2;PMS_P1;PMS_P2;Temp;Humidity;BMP_temperature;BMP_pressure;BME280_temperature;BME280_humidity;BME280_pressure;Samples;Min_cycle;Max_cycle;Signal;HPM_P1;HPM_P2
2024/01/31 00:01:47;;;;;;;38.55;13.65;;;;;;;;;;5021876;28;20075;-56
2024/01/31 00:04:12;;;;;;;41.20;15.10;;;;;;;;;;5029901;28;20018;-56
2024/01/31 00:06:37;;;;;;;39.13;15.13;;;;;;;;;;5029379;28;20029;-57
2024/01/31 00:09:03;;;;;;;39.72;15.18;;;;;;;;;;5030510;28;20025;-57
2024/01/31 00:11:29;;;;;;;39.10;14.32;;;;;;;;;;5022976;28;20097;-57
2024/01/31 00:13:54;;;;;;;38.67;13.40;;;;;;;;;;5029531;28;20434;-58
2024/01/31 00:16:21;;;;;;;42.58;14.30;;;;;;;;;;5014775;28;20043;-56
2024/01/31 00:18:46;;;;;;;36.92;14.18;;;;;;;;;;5031678;28;20026;-55
2024/01/31 00:21:11;;;;;;;39.37;15.17;;;;;;;;;;5028117;28;20025;-56
2024/01/31 00:23:36;;;;;;;39.25;14.98;;;;;;;;;;5034309;28;20029;-56
2024/01/31 00:26:01;;;;;;;41.15;14.73;;;;;;;;;;5025498;28;20072;-56
2024/01/31 00:28:27;;;;;;;38.63;14.73;;;;;;;;;;5034922;28;20063;-56
2024/01/31 00:30:53;;;;;;;41.63;14.93;;;;;;;;;;5029780;28;20018;-56
2024/01/31 00:33:19;;;;;;;38.35;14.00;;;;;;;;;;5029235;28;20032;-56
2024/01/31 00:35:47;;;;;;;39.53;14.70;;;;;;;;;;5035121;28;20029;-57
2024/01/31 00:38:12;;;;;;;36.00;13.80;;;;;;;;;;5033323;28;20025;-56
2024/01/31 00:40:37;;;;;;;42.42;14.57;;;;;;;;;;5027504;28;20094;-58
2024/01/31 00:43:02;;;;;;;40.85;15.02;;;;;;;;;;5038181;28;20029;-56
2024/01/31 00:45:28;;;;;;;41.67;15.57;;;;;;;;;;5028413;28;20300;-56
2024/01/31 00:47:53;;;;;;;43.58;15.23;;;;;;;;;;5036095;28;20021;-59
2024/01/31 00:50:18;;;;;;;41.10;15.35;;;;;;;;;;5033037;28;20021;-57
2024/01/31 00:52:43;;;;;;;41.22;15.15;;;;;;;;;;5023827;28;20025;-57
2024/01/31 00:55:09;;;;;;;40.53;15.18;;;;;;;;;;5033653;28;20052;-56
2024/01/31 00:57:34;;;;;;;38.90;14.73;;;;;;;;;;5036686;28;20128;-56
2024/01/31 01:00:05;;;;;;;42.20;16.67;;;;;;;;;;5028793;28;20034;-56
2024/01/31 01:02:30;;;;;;;40.38;15.30;;;;;;;;;;5024453;28;20037;-57
2024/01/31 01:04:55;;;;;;;38.53;15.85;;;;;;;;;;5034917;28;20025;-58
2024/01/31 01:07:20;;;;;;;41.92;16.27;;;;;;;;;;5033945;28;20022;-57
2024/01/31 01:09:45;;;;;;;42.27;15.73;;;;;;;;;;5024709;28;20100;-55
2024/01/31 01:12:11;;;;;;;43.27;14.80;;;;;;;;;;5030620;28;20405;-57
2024/01/31 01:14:36;;;;;;;43.20;15.35;;;;;;;;;;5033700;28;20049;-56
2024/01/31 01:17:02;;;;;;;41.03;15.82;;;;;;;;;;5030734;28;20025;-58
2024/01/31 01:19:28;;;;;;;44.13;16.60;;;;;;;;;;5026929;28;20030;-57
2024/01/31 01:21:53;;;;;;;41.40;15.82;;;;;;;;;;5033975;28;20049;-56
2024/01/31 01:24:18;;;;;;;48.47;16.00;;;;;;;;;;5019128;28;20619;-55
2024/01/31 01:26:46;;;;;;;43.28;15.68;;;;;;;;;;5015334;28;20516;-57
2024/01/31 01:29:12;;;;;;;43.40;15.90;;;;;;;;;;5030294;28;20029;-56
2024/01/31 01:31:37;;;;;;;45.30;16.17;;;;;;;;;;5031207;28;20025;-56
2024/01/31 01:34:02;;;;;;;44.72;16.70;;;;;;;;;;5027992;28;20494;-57
2024/01/31 01:36:27;;;;;;;43.10;16.25;;;;;;;;;;5014052;28;20025;-56
2024/01/31 01:38:52;;;;;;;44.27;16.37;;;;;;;;;;5028416;28;20026;-57
2024/01/31 01:41:18;;;;;;;42.90;16.10;;;;;;;;;;5014328;28;20177;-59
2024/01/31 01:43:43;;;;;;;42.87;15.57;;;;;;;;;;5023836;28;20027;-57
2024/01/31 01:46:09;;;;;;;47.37;16.07;;;;;;;;;;5028956;28;20108;-58
2024/01/31 01:48:35;;;;;;;44.30;16.02;;;;;;;;;;5026227;28;20114;-55
2024/01/31 01:51:00;;;;;;;41.80;15.23;;;;;;;;;;5032430;28;20129;-58
2024/01/31 01:53:25;;;;;;;42.67;16.43;;;;;;;;;;5022697;28;20030;-57
2024/01/31 01:55:51;;;;;;;42.73;15.70;;;;;;;;;;5013106;28;20037;-56
2024/01/31 01:58:16;;;;;;;41.78;14.65;;;;;;;;;;5013531;28;20813;-56
2024/01/31 02:00:43;;;;;;;44.92;17.17;;;;;;;;;;5026845;28;20029;-57
2024/01/31 02:03:08;;;;;;;44.72;16.50;;;;;;;;;;5031563;28;20032;-57
2024/01/31 02:05:35;;;;;;;40.80;16.33;;;;;;;;;;5030730;28;20025;-57
2024/01/31 02:08:01;;;;;;;46.63;17.27;;;;;;;;;;5032241;28;20040;-55
2024/01/31 02:10:26;;;;;;;40.30;15.15;;;;;;;;;;5020890;28;20363;-57
2024/01/31 02:12:53;;;;;;;41.05;15.77;;;;;;;;;;5012750;28;20123;-57
2024/01/31 02:15:18;;;;;;;40.50;15.90;;;;;;;;;;5029743;28;20420;-56
2024/01/31 02:17:43;;;;;;;44.20;16.10;;;;;;;;;;5030768;28;20025;-56
2024/01/31 02:20:15;;;;;;;44.50;15.73;;;;;;;;;;5023531;28;20112;-57
2024/01/31 02:22:40;;;;;;;40.13;15.00;;;;;;;;;;5013750;28;20410;-57
2024/01/31 02:25:10;;;;;;;41.42;17.08;;;;;;;;;;5016486;28;20113;-56
2024/01/31 02:27:36;;;;;;;40.88;14.85;;;;;;;;;;5015069;28;20091;-55
2024/01/31 02:30:01;;;;;;;40.33;15.25;;;;;;;;;;5029532;28;20041;-56
2024/01/31 02:32:26;;;;;;;42.80;15.65;;;;;;;;;;5017463;28;20048;-57
2024/01/31 02:34:51;;;;;;;43.60;16.58;;;;;;;;;;5031734;28;20045;-57
2024/01/31 02:37:16;;;;;;;40.55;15.05;;;;;;;;;;5030042;28;20514;-55
2024/01/31 02:39:41;;;;;;;40.45;15.77;;;;;;;;;;5016774;28;20029;-56
2024/01/31 02:42:06;;;;;;;41.50;15.43;;;;;;;;;;5032598;28;20030;-56
2024/01/31 02:44:32;;;;;;;41.28;16.15;;;;;;;;;;5039691;28;20026;-56
2024/01/31 02:46:57;;;;;;;39.53;15.48;;;;;;;;;;5036985;28;20100;-56
2024/01/31 02:49:22;;;;;;;42.10;15.10;;;;;;;;;;5036759;28;20049;-57
2024/01/31 02:51:47;;;;;;;42.95;15.95;;;;;;;;;;5014985;28;20090;-56
2024/01/31 02:54:12;;;;;;;41.13;15.73;;;;;;;;;;5022616;28;20041;-56
2024/01/31 02:56:37;;;;;;;40.77;16.07;;;;;;;;;;5031110;28;20033;-56
2024/01/31 02:59:03;;;;;;;38.35;14.73;;;;;;;;;;5018604;28;20102;-57
2024/01/31 03:01:28;;;;;;;40.83;15.85;;;;;;;;;;5023029;28;20021;-56
2024/01/31 03:03:53;;;;;;;36.83;14.80;;;;;;;;;;5029776;28;20049;-57
2024/01/31 03:06:18;;;;;;;35.93;15.00;;;;;;;;;;5030503;28;20029;-57
2024/01/31 03:08:43;;;;;;;37.92;15.52;;;;;;;;;;5022194;28;20028;-56
2024/01/31 03:11:09;;;;;;;38.75;15.52;;;;;;;;;;5028717;28;20072;-57
2024/01/31 03:13:34;;;;;;;40.80;15.27;;;;;;;;;;5018325;28;20032;-56
2024/01/31 03:15:59;;;;;;;39.67;15.00;;;;;;;;;;5020325;28;20025;-56
2024/01/31 03:18:24;;;;;;;40.80;15.52;;;;;;;;;;5017992;28;20026;-58
2024/01/31 03:20:54;;;;;;;38.17;14.97;;;;;;;;;;5025063;28;20057;-57
2024/01/31 03:23:19;;;;;;;43.95;16.25;;;;;;;;;;5029745;28;20060;-57
2024/01/31 03:25:44;;;;;;;41.65;15.45;;;;;;;;;;5025498;28;20073;-57
2024/01/31 03:28:09;;;;;;;42.58;15.88;;;;;;;;;;5017005;28;20024;-57
2024/01/31 03:30:35;;;;;;;39.30;13.90;;;;;;;;;;5029919;28;20102;-57
2024/01/31 03:33:00;;;;;;;40.40;15.57;;;;;;;;;;5025718;28;20481;-56
2024/01/31 03:35:25;;;;;;;37.17;14.05;;;;;;;;;;5024038;28;20037;-56
2024/01/31 03:37:50;;;;;;;41.77;15.40;;;;;;;;;;5011138;28;20448;-58
2024/01/31 03:40:15;;;;;;;41.63;15.55;;;;;;;;;;5016982;28;20021;-56
2024/01/31 03:42:41;;;;;;;40.53;15.77;;;;;;;;;;5036821;28;20032;-56
2024/01/31 03:45:06;;;;;;;48.72;16.58;;;;;;;;;;5034868;28;20440;-56
2024/01/31 03:47:34;;;;;;;42.05;15.40;;;;;;;;;;5037379;28;20013;-58
2024/01/31 03:49:59;;;;;;;42.33;16.35;;;;;;;;;;5036971;28;20428;-56
2024/01/31 03:52:24;;;;;;;36.80;14.50;;;;;;;;;;5036800;28;20020;-56
2024/01/31 03:54:49;;;;;;;44.40;17.23;;;;;;;;;;5022196;28;20045;-58
2024/01/31 03:57:14;;;;;;;41.55;15.80;;;;;;;;;;5031944;28;20017;-57
2024/01/31 03:59:39;;;;;;;40.27;15.40;;;;;;;;;;5022431;28;20088;-56
2024/01/31 04:02:05;;;;;;;42.60;16.47;;;;;;;;;;5037105;28;20029;-57
2024/01/31 04:04:31;;;;;;;39.45;15.98;;;;;;;;;;5032468;28;20071;-57
2024/01/31 04:06:56;;;;;;;42.17;15.73;;;;;;;;;;5024039;28;20056;-56
2024/01/31 04:09:21;;;;;;;43.97;16.90;;;;;;;;;;5036605;28;20026;-55
2024/01/31 04:11:46;;;;;;;45.28;17.95;;;;;;;;;;5036400;28;20029;-57
2024/01/31 04:14:12;;;;;;;43.10;16.48;;;;;;;;;;5026973;28;20489;-56
2024/01/31 04:16:37;;;;;;;42.73;16.30;;;;;;;;;;5036943;28;20041;-57
2024/01/31 04:19:02;;;;;;;43.63;16.75;;;;;;;;;;5031294;28;20022;-57
2024/01/31 04:21:27;;;;;;;45.30;16.65;;;;;;;;;;5032839;28;20025;-56
2024/01/31 04:23:53;;;;;;;47.75;17.75;;;;;;;;;;5024408;28;20076;-58
2024/01/31 04:26:18;;;;;;;46.40;18.13;;;;;;;;;;5036812;28;20039;-58
2024/01/31 04:28:43;;;;;;;43.63;17.80;;;;;;;;;;5028559;28;20389;-57
2024/01/31 04:31:14;;;;;;;41.93;16.40;;;;;;;;;;5035012;28;20524;-56
2024/01/31 04:33:39;;;;;;;45.70;16.30;;;;;;;;;;5035803;28;20456;-58
2024/01/31 04:36:05;;;;;;;43.80;15.80;;;;;;;;;;5035632;28;20440;-56
2024/01/31 04:38:31;;;;;;;42.70;16.13;;;;;;;;;;5033060;28;20010;-57
2024/01/31 04:40:56;;;;;;;45.00;16.17;;;;;;;;;;5036865;28;20021;-57
2024/01/31 04:43:21;;;;;;;46.53;16.47;;;;;;;;;;5035074;28;20033;-57
2024/01/31 04:45:46;;;;;;;44.43;16.00;;;;;;;;;;5037917;28;20029;-58
2024/01/31 04:48:11;;;;;;;38.60;15.23;;;;;;;;;;5036300;28;20021;-57
2024/01/31 04:50:36;;;;;;;44.87;16.50;;;;;;;;;;5035221;28;20052;-57
2024/01/31 04:53:02;;;;;;;44.07;16.33;;;;;;;;;;5033232;28;20017;-56
2024/01/31 04:55:27;;;;;;;42.22;16.67;;;;;;;;;;5033593;28;20099;-58
2024/01/31 04:57:52;;;;;;;41.70;16.05;;;;;;;;;;5032052;28;20537;-57
2024/01/31 05:00:18;;;;;;;42.72;17.08;;;;;;;;;;5033935;28;20036;-57
2024/01/31 05:02:43;;;;;;;44.53;16.73;;;;;;;;;;5026944;28;20048;-57
2024/01/31 05:05:08;;;;;;;41.63;16.80;;;;;;;;;;5027645;28;20044;-57
2024/01/31 05:07:33;;;;;;;42.90;16.48;;;;;;;;;;5033051;28;20040;-57
2024/01/31 05:09:58;;;;;;;42.60;16.27;;;;;;;;;;5028096;28;20081;-57
2024/01/31 05:12:23;;;;;;;39.93;16.73;;;;;;;;;;5028733;28;20496;-57
2024/01/31 05:14:49;;;;;;;41.15;15.55;;;;;;;;;;5032967;28;20430;-57
2024/01/31 05:17:17;;;;;;;37.65;16.00;;;;;;;;;;5023948;28;20021;-58
2024/01/31 05:19:42;;;;;;;41.15;16.00;;;;;;;;;;5029301;28;20029;-57
2024/01/31 05:22:07;;;;;;;43.25;17.20;;;;;;;;;;5025578;28;20486;-56
2024/01/31 05:24:33;;;;;;;39.13;17.03;;;;;;;;;;5027148;28;20083;-58
2024/01/31 05:27:03;;;;;;;44.72;18.25;;;;;;;;;;5023421;28;20464;-57
2024/01/31 05:29:28;;;;;;;44.83;17.52;;;;;;;;;;5025658;28;20029;-56
2024/01/31 05:31:53;;;;;;;40.75;15.80;;;;;;;;;;5027867;28;20055;-57
2024/01/31 05:34:19;;;;;;;42.42;16.42;;;;;;;;;;5030070;28;20027;-58
2024/01/31 05:36:45;;;;;;;40.47;16.13;;;;;;;;;;5031538;28;20485;-57
2024/01/31 05:39:11;;;;;;;44.63;17.60;;;;;;;;;;5025111;28;20030;-57
2024/01/31 05:41:40;;;;;;;49.10;17.58;;;;;;;;;;5034934;28;20044;-57
2024/01/31 05:44:05;;;;;;;43.65;16.85;;;;;;;;;;5034626;28;20025;-56
2024/01/31 05:46:30;;;;;;;42.58;16.20;;;;;;;;;;5039164;28;20037;-57
2024/01/31 05:48:57;;;;;;;45.63;16.23;;;;;;;;;;5041300;28;20025;-57
2024/01/31 05:51:22;;;;;;;44.40;15.73;;;;;;;;;;5021564;28;20034;-57
2024/01/31 05:53:47;;;;;;;42.53;17.05;;;;;;;;;;5026732;28;20099;-56
2024/01/31 05:56:15;;;;;;;49.13;17.83;;;;;;;;;;5022110;28;20120;-58
2024/01/31 05:58:41;;;;;;;41.72;16.73;;;;;;;;;;5027361;28;20540;-57
2024/01/31 06:01:06;;;;;;;44.87;17.33;;;;;;;;;;5015977;28;20033;-57
2024/01/31 06:03:31;;;;;;;46.15;17.38;;;;;;;;;;5032037;28;20029;-58
2024/01/31 06:05:58;;;;;;;42.78;16.17;;;;;;;;;;5022207;28;20025;-56
2024/01/31 06:08:24;;;;;;;42.85;16.60;;;;;;;;;;5028136;28;20086;-56
2024/01/31 06:10:53;;;;;;;47.03;17.25;;;;;;;;;;5028358;28;20037;-57
2024/01/31 06:13:18;;;;;;;45.78;18.08;;;;;;;;;;5026386;28;20014;-57
2024/01/31 06:15:43;;;;;;;44.47;16.57;;;;;;;;;;5027961;28;20041;-57
2024/01/31 06:18:08;;;;;;;47.22;17.88;;;;;;;;;;5031556;28;20014;-57
2024/01/31 06:20:40;;;;;;;46.35;16.95;;;;;;;;;;5031705;28;20033;-56
2024/01/31 06:23:06;;;;;;;48.13;16.50;;;;;;;;;;5022482;28;20471;-58
2024/01/31 06:25:31;;;;;;;49.90;17.83;;;;;;;;;;5033038;28;20125;-57
2024/01/31 06:27:56;;;;;;;47.07;17.60;;;;;;;;;;5028982;28;20025;-56
2024/01/31 06:30:30;;;;;;;47.27;17.80;;;;;;;;;;5023450;28;20029;-57
2024/01/31 06:33:05;;;;;;;42.38;16.73;;;;;;;;;;5029307;28;20104;-57
2024/01/31 06:35:30;;;;;;;48.10;17.85;;;;;;;;;;5028504;28;20535;-58
2024/01/31 06:37:55;;;;;;;50.37;18.37;;;;;;;;;;5030704;28;20025;-58
2024/01/31 06:40:20;;;;;;;44.75;16.55;;;;;;;;;;5038716;28;20108;-56
2024/01/31 06:42:45;;;;;;;44.97;16.27;;;;;;;;;;5026432;28;20022;-57
2024/01/31 06:45:10;;;;;;;44.78;17.20;;;;;;;;;;5027186;28;20033;-56
2024/01/31 06:47:36;;;;;;;48.37;18.07;;;;;;;;;;5032703;28;20025;-57
2024/01/31 06:50:01;;;;;;;46.00;18.38;;;;;;;;;;5029731;28;20017;-62
2024/01/31 06:52:26;;;;;;;42.67;16.67;;;;;;;;;;5029569;28;20041;-56
2024/01/31 06:54:51;;;;;;;45.73;17.80;;;;;;;;;;5030391;28;20040;-57
2024/01/31 06:57:16;;;;;;;44.73;17.57;;;;;;;;;;5026192;28;20117;-56
2024/01/31 06:59:41;;;;;;;46.25;17.75;;;;;;;;;;5023359;28;20022;-56
2024/01/31 07:02:08;;;;;;;41.38;16.27;;;;;;;;;;5021081;28;20075;-56
2024/01/31 07:04:33;;;;;;;45.20;16.92;;;;;;;;;;5028890;28;20075;-57
2024/01/31 07:06:59;;;;;;;44.38;17.70;;;;;;;;;;5028159;28;20437;-57
2024/01/31 07:09:25;;;;;;;44.40;17.08;;;;;;;;;;5021494;28;20497;-57
2024/01/31 07:11:50;;;;;;;47.33;17.58;;;;;;;;;;5027269;28;20047;-56
2024/01/31 07:14:15;;;;;;;46.73;18.07;;;;;;;;;;5027306;28;20052;-57
2024/01/31 07:16:40;;;;;;;47.78;16.90;;;;;;;;;;5029545;28;20554;-56
2024/01/31 07:19:06;;;;;;;42.07;17.53;;;;;;;;;;5030464;28;20013;-57
2024/01/31 07:21:33;;;;;;;48.95;18.42;;;;;;;;;;5026731;28;20064;-57
2024/01/31 07:23:58;;;;;;;48.20;18.88;;;;;;;;;;5027407;28;20060;-58
2024/01/31 07:26:26;;;;;;;45.37;16.67;;;;;;;;;;5026610;28;20069;-56
2024/01/31 07:28:51;;;;;;;43.65;16.55;;;;;;;;;;5022437;28;20021;-57
2024/01/31 07:31:16;;;;;;;46.40;17.33;;;;;;;;;;5029096;28;20021;-57
2024/01/31 07:33:41;;;;;;;46.80;18.40;;;;;;;;;;5028231;28;20029;-57
2024/01/31 07:36:07;;;;;;;44.25;17.25;;;;;;;;;;5029994;28;20052;-56
2024/01/31 07:38:32;;;;;;;41.55;17.05;;;;;;;;;;5028906;28;20117;-57
2024/01/31 07:40:57;;;;;;;42.08;16.30;;;;;;;;;;5018181;28;20549;-57
2024/01/31 07:43:23;;;;;;;45.13;18.42;;;;;;;;;;5018083;28;20034;-57
2024/01/31 07:45:48;;;;;;;44.50;17.48;;;;;;;;;;5019883;28;20038;-57
2024/01/31 07:48:13;;;;;;;42.75;16.80;;;;;;;;;;5028649;28;20029;-58
2024/01/31 07:50:38;;;;;;;42.92;16.63;;;;;;;;;;5029259;28;20029;-57
2024/01/31 07:53:03;;;;;;;47.55;17.27;;;;;;;;;;5028199;28;20017;-57
2024/01/31 07:55:29;;;;;;;42.33;17.53;;;;;;;;;;5029355;28;20041;-58
2024/01/31 07:57:54;;;;;;;46.77;18.70;;;;;;;;;;5020152;28;20017;-57
2024/01/31 08:00:19;;;;;;;41.95;16.85;;;;;;;;;;5029585;28;20120;-57
2024/01/31 08:02:44;;;;;;;45.87;17.67;;;;;;;;;;5026725;28;20022;-57
2024/01/31 08:05:09;;;;;;;43.90;17.65;;;;;;;;;;5029782;28;20040;-60
2024/01/31 08:07:35;;;;;;;43.47;16.70;;;;;;;;;;5030748;28;20033;-57
2024/01/31 08:10:00;;;;;;;48.43;18.73;;;;;;;;;;5030912;28;20579;-57
2024/01/31 08:12:26;;;;;;;44.28;16.75;;;;;;;;;;5029745;28;20079;-56
2024/01/31 08:14:51;;;;;;;44.20;18.45;;;;;;;;;;5030158;28;20030;-56
2024/01/31 08:17:16;;;;;;;44.00;18.00;;;;;;;;;;5029102;28;20025;-58
2024/01/31 08:19:41;;;;;;;44.58;17.35;;;;;;;;;;5029591;28;20103;-58
2024/01/31 08:22:07;;;;;;;43.20;17.95;;;;;;;;;;5029385;28;20044;-57
2024/01/31 08:24:32;;;;;;;45.03;17.90;;;;;;;;;;5026995;28;20044;-57
2024/01/31 08:26:57;;;;;;;43.95;17.83;;;;;;;;;;5030002;28;20048;-57
2024/01/31 08:29:22;;;;;;;42.53;17.60;;;;;;;;;;5036254;28;20021;-57
2024/01/31 08:31:48;;;;;;;47.37;18.70;;;;;;;;;;5029775;28;20021;-57
2024/01/31 08:34:14;;;;;;;44.13;17.33;;;;;;;;;;5035362;28;20397;-57
2024/01/31 08:36:39;;;;;;;42.95;16.45;;;;;;;;;;5038287;28;20033;-57
2024/01/31 08:39:04;;;;;;;44.17;17.83;;;;;;;;;;5037986;28;20013;-57
2024/01/31 08:41:30;;;;;;;44.43;17.93;;;;;;;;;;5039526;28;20040;-57
2024/01/31 08:43:55;;;;;;;38.78;16.08;;;;;;;;;;5034988;28;20040;-58
2024/01/31 08:46:20;;;;;;;41.77;16.60;;;;;;;;;;5030556;28;20366;-57
2024/01/31 08:48:46;;;;;;;43.70;17.40;;;;;;;;;;5025879;28;20021;-56
2024/01/31 08:51:11;;;;;;;41.92;18.20;;;;;;;;;;5027727;28;20021;-57
2024/01/31 08:53:36;;;;;;;43.50;17.00;;;;;;;;;;5032804;28;20013;-57
2024/01/31 08:56:01;;;;;;;49.13;19.33;;;;;;;;;;5031733;28;20037;-56
2024/01/31 08:58:27;;;;;;;45.93;17.97;;;;;;;;;;5032004;28;20013;-57
2024/01/31 09:00:52;;;;;;;40.42;18.17;;;;;;;;;;5030260;28;20028;-57
2024/01/31 09:03:17;;;;;;;43.30;17.23;;;;;;;;;;5030394;28;20405;-56
2024/01/31 09:05:43;;;;;;;40.28;17.15;;;;;;;;;;5032704;28;20099;-57
2024/01/31 09:08:08;;;;;;;37.40;16.13;;;;;;;;;;5032463;28;20396;-58
2024/01/31 09:10:33;;;;;;;39.50;15.90;;;;;;;;;;5030195;28;20478;-57
2024/01/31 09:12:58;;;;;;;42.70;17.90;;;;;;;;;;5030232;28;20175;-57
2024/01/31 09:15:23;;;;;;;38.97;15.80;;;;;;;;;;5035659;28;20038;-57
2024/01/31 09:17:49;;;;;;;42.40;17.70;;;;;;;;;;5033541;28;20489;-57
2024/01/31 09:20:14;;;;;;;44.17;18.50;;;;;;;;;;5032650;28;20036;-57
2024/01/31 09:22:40;;;;;;;40.10;17.20;;;;;;;;;;5032432;28;20056;-57
2024/01/31 09:25:06;;;;;;;42.05;17.95;;;;;;;;;;5030358;28;20018;-58
2024/01/31 09:27:32;;;;;;;39.92;16.67;;;;;;;;;;5026165;28;20045;-57
2024/01/31 09:29:57;;;;;;;38.22;17.58;;;;;;;;;;5022233;28;20029;-56
2024/01/31 09:32:22;;;;;;;45.60;16.97;;;;;;;;;;5030247;28;20215;-57
2024/01/31 09:34:48;;;;;;;40.73;17.57;;;;;;;;;;5031123;28;20040;-56
2024/01/31 09:37:13;;;;;;;46.08;19.17;;;;;;;;;;5031917;28;20017;-57
2024/01/31 09:39:38;;;;;;;41.00;16.10;;;;;;;;;;5033061;28;20083;-56
2024/01/31 09:42:03;;;;;;;42.38;16.58;;;;;;;;;;5030627;28;20429;-57
2024/01/31 09:44:29;;;;;;;41.03;16.67;;;;;;;;;;5030537;28;20079;-56
2024/01/31 09:46:55;;;;;;;40.40;16.58;;;;;;;;;;5026067;28;20056;-57
2024/01/31 09:49:20;;;;;;;42.53;16.50;;;;;;;;;;5029796;28;20405;-57
2024/01/31 09:51:45;;;;;;;38.75;16.80;;;;;;;;;;5030250;28;20051;-57
2024/01/31 09:54:10;;;;;;;47.47;16.75;;;;;;;;;;5030802;28;20044;-57
2024/01/31 09:56:36;;;;;;;40.00;16.77;;;;;;;;;;5031669;28;20040;-59
2024/01/31 09:59:02;;;;;;;37.50;16.33;;;;;;;;;;5031969;28;20444;-57
2024/01/31 10:01:28;;;;;;;40.20;16.20;;;;;;;;;;5031491;28;20032;-58
2024/01/31 10:03:57;;;;;;;35.30;15.55;;;;;;;;;;5028833;28;20104;-58
2024/01/31 10:06:22;;;;;;;42.10;16.98;;;;;;;;;;5027947;28;20117;-57
2024/01/31 10:08:47;;;;;;;40.03;17.40;;;;;;;;;;5029950;28;20097;-55
2024/01/31 10:11:12;;;;;;;41.23;17.47;;;;;;;;;;5030786;28;20021;-57
2024/01/31 10:13:38;;;;;;;41.10;17.35;;;;;;;;;;5030966;28;20029;-56
2024/01/31 10:16:04;;;;;;;39.15;16.50;;;;;;;;;;5029727;28;20030;-58
2024/01/31 10:18:29;;;;;;;38.15;16.50;;;;;;;;;;5028707;28;20029;-57
2024/01/31 10:20:54;;;;;;;38.87;16.80;;;;;;;;;;5029458;28;20104;-58
2024/01/31 10:23:20;;;;;;;41.50;17.45;;;;;;;;;;5029558;28;20416;-57
2024/01/31 10:25:45;;;;;;;39.38;18.13;;;;;;;;;;5031684;28;20029;-57
2024/01/31 10:28:10;;;;;;;38.50;17.53;;;;;;;;;;5026788;28;20025;-57
2024/01/31 10:30:39;;;;;;;42.83;18.17;;;;;;;;;;5022381;28;20037;-56
2024/01/31 10:33:05;;;;;;;39.42;17.75;;;;;;;;;;5025918;28;20025;-58
2024/01/31 10:35:30;;;;;;;41.22;18.15;;;;;;;;;;5027416;28;20037;-58
2024/01/31 10:37:55;;;;;;;38.30;16.30;;;;;;;;;;5029373;28;20037;-58
2024/01/31 10:40:21;;;;;;;38.17;16.02;;;;;;;;;;5030594;28;20486;-57
2024/01/31 10:42:46;;;;;;;44.80;17.17;;;;;;;;;;5028459;28;20032;-58
2024/01/31 10:45:12;;;;;;;38.70;16.35;;;;;;;;;;5030918;28;20048;-58
2024/01/31 10:47:37;;;;;;;40.55;17.50;;;;;;;;;;5031873;28;20458;-58
2024/01/31 10:50:02;;;;;;;38.47;16.20;;;;;;;;;;5030263;28;20029;-59
2024/01/31 10:52:31;;;;;;;38.40;16.63;;;;;;;;;;5029800;28;20021;-57
2024/01/31 10:54:58;;;;;;;40.03;16.90;;;;;;;;;;5032155;28;20031;-57
2024/01/31 10:57:24;;;;;;;38.90;16.17;;;;;;;;;;5029308;28;20028;-57
2024/01/31 10:59:49;;;;;;;42.97;17.30;;;;;;;;;;5029522;28;20025;-58
2024/01/31 11:02:17;;;;;;;40.20;16.63;;;;;;;;;;5028317;28;20079;-57
2024/01/31 11:04:43;;;;;;;37.97;15.98;;;;;;;;;;5032729;28;20392;-57
2024/01/31 11:07:15;;;;;;;44.22;17.25;;;;;;;;;;5030326;28;20032;-58
2024/01/31 11:09:40;;;;;;;37.50;17.33;;;;;;;;;;5028850;28;20075;-57
2024/01/31 11:12:08;;;;;;;36.60;15.13;;;;;;;;;;5031497;28;20025;-57
2024/01/31 11:14:33;;;;;;;34.55;14.73;;;;;;;;;;5027918;28;20029;-58
2024/01/31 11:17:34;;;;;;;37.37;15.67;;;;;;;;;;5028788;28;20033;-56
2024/01/31 11:19:59;;;;;;;36.03;15.05;;;;;;;;;;5026108;28;20417;-58
2024/01/31 11:22:25;;;;;;;37.10;15.27;;;;;;;;;;5028549;28;20028;-56
2024/01/31 11:24:51;;;;;;;31.05;13.50;;;;;;;;;;5026673;28;20098;-56
2024/01/31 11:27:17;;;;;;;38.53;15.93;;;;;;;;;;5030027;28;20029;-57
2024/01/31 11:29:45;;;;;;;33.97;14.65;;;;;;;;;;5031147;28;20028;-57
2024/01/31 11:32:11;;;;;;;41.10;16.20;;;;;;;;;;5029537;28;20014;-57
2024/01/31 11:34:36;;;;;;;36.50;15.17;;;;;;;;;;5030072;28;20040;-56
2024/01/31 11:37:01;;;;;;;35.67;14.98;;;;;;;;;;5030918;28;20860;-57
2024/01/31 11:39:26;;;;;;;36.10;14.93;;;;;;;;;;5029880;28;20026;-57
2024/01/31 11:41:52;;;;;;;35.15;14.18;;;;;;;;;;5036287;28;20486;-56
2024/01/31 11:44:17;;;;;;;34.42;14.38;;;;;;;;;;5039815;28;20022;-59
2024/01/31 11:46:42;;;;;;;33.07;13.83;;;;;;;;;;5041841;28;20022;-56
2024/01/31 11:49:07;;;;;;;33.20;14.33;;;;;;;;;;5041834;28;20455;-57
2024/01/31 11:51:33;;;;;;;37.53;14.60;;;;;;;;;;5045352;28;20021;-57
2024/01/31 11:53:58;;;;;;;37.35;16.15;;;;;;;;;;5041765;28;20458;-58
2024/01/31 11:56:23;;;;;;;38.53;15.67;;;;;;;;;;5044389;28;20101;-58
2024/01/31 11:58:51;;;;;;;37.07;16.57;;;;;;;;;;5040836;28;20013;-58
2024/01/31 12:01:16;;;;;;;40.17;15.55;;;;;;;;;;5033154;28;20147;-57
2024/01/31 12:03:43;;;;;;;38.13;14.80;;;;;;;;;;5030744;28;20500;-57
2024/01/31 12:06:08;;;;;;;37.40;15.93;;;;;;;;;;5032977;28;20025;-59
2024/01/31 12:08:34;;;;;;;34.90;15.40;;;;;;;;;;5032388;28;20036;-58
2024/01/31 12:10:59;;;;;;;38.38;16.58;;;;;;;;;;5032883;28;20589;-57
2024/01/31 12:13:24;;;;;;;38.80;17.25;;;;;;;;;;5034111;28;20035;-58
2024/01/31 12:15:50;;;;;;;36.13;16.00;;;;;;;;;;5034558;28;20028;-58
2024/01/31 12:18:15;;;;;;;32.83;15.50;;;;;;;;;;5034915;28;20035;-57
2024/01/31 12:20:40;;;;;;;34.27;14.77;;;;;;;;;;5031201;28;20026;-57
2024/01/31 12:23:07;;;;;;;32.50;13.27;;;;;;;;;;5034326;28;20832;-56
2024/01/31 12:25:32;;;;;;;35.55;14.48;;;;;;;;;;5032084;28;20468;-57
2024/01/31 12:27:57;;;;;;;38.53;15.95;;;;;;;;;;5036235;28;20026;-57
2024/01/31 12:30:23;;;;;;;37.73;15.57;;;;;;;;;;5033954;28;20100;-58
2024/01/31 12:32:49;;;;;;;27.10;12.88;;;;;;;;;;5032233;28;20389;-58
2024/01/31 12:35:14;;;;;;;26.20;11.57;;;;;;;;;;5032467;28;20490;-56
2024/01/31 12:37:40;;;;;;;30.17;13.87;;;;;;;;;;5032181;28;20036;-58
2024/01/31 12:40:06;;;;;;;28.30;13.33;;;;;;;;;;5031054;28;20481;-57
2024/01/31 12:42:31;;;;;;;28.80;11.20;;;;;;;;;;5033277;28;20030;-57
2024/01/31 12:44:56;;;;;;;36.70;15.70;;;;;;;;;;5033116;28;20048;-56
2024/01/31 12:47:22;;;;;;;32.55;13.52;;;;;;;;;;5031740;28;20044;-56
2024/01/31 12:49:47;;;;;;;23.80;10.27;;;;;;;;;;5030177;28;20135;-57
2024/01/31 12:52:12;;;;;;;21.27;8.38;;;;;;;;;;5030559;28;20704;-58
2024/01/31 12:54:37;;;;;;;15.67;7.07;;;;;;;;;;5026265;28;20021;-58
2024/01/31 12:57:02;;;;;;;16.23;7.22;;;;;;;;;;5029961;28;20108;-58
2024/01/31 12:59:28;;;;;;;13.30;6.57;;;;;;;;;;5033224;28;20045;-58
2024/01/31 13:01:53;;;;;;;12.13;5.83;;;;;;;;;;5033137;28;20124;-58
2024/01/31 13:04:18;;;;;;;13.20;6.40;;;;;;;;;;5029983;28;20036;-58
2024/01/31 13:06:43;;;;;;;15.73;6.93;;;;;;;;;;5032348;28;20067;-57
2024/01/31 13:09:09;;;;;;;14.13;6.13;;;;;;;;;;5029708;28;20041;-57
2024/01/31 13:11:35;;;;;;;14.00;6.00;;;;;;;;;;5028249;28;20038;-57
2024/01/31 13:14:00;;;;;;;12.30;5.32;;;;;;;;;;5031959;28;20021;-57
2024/01/31 13:16:26;;;;;;;23.13;5.60;;;;;;;;;;5033029;28;20396;-59
2024/01/31 13:18:51;;;;;;;10.32;5.13;;;;;;;;;;5030209;28;20026;-57
2024/01/31 13:21:16;;;;;;;11.32;5.00;;;;;;;;;;5032242;28;20071;-57
2024/01/31 13:23:41;;;;;;;11.27;5.00;;;;;;;;;;5031258;28;20072;-57
2024/01/31 13:26:07;;;;;;;9.88;4.78;;;;;;;;;;5034337;28;20029;-57
2024/01/31 13:28:32;;;;;;;9.50;4.28;;;;;;;;;;5037232;28;20108;-58
2024/01/31 13:30:57;;;;;;;9.57;5.00;;;;;;;;;;5045786;28;20104;-57
2024/01/31 13:33:22;;;;;;;14.10;5.00;;;;;;;;;;5031248;28;20484;-57
2024/01/31 13:35:47;;;;;;;10.98;5.43;;;;;;;;;;5030805;28;20103;-57
2024/01/31 13:38:13;;;;;;;11.90;5.23;;;;;;;;;;5030828;28;20029;-57
2024/01/31 13:40:38;;;;;;;9.18;4.97;;;;;;;;;;5032504;28;20052;-57
2024/01/31 13:43:03;;;;;;;9.60;4.97;;;;;;;;;;5030608;28;20033;-56
2024/01/31 13:45:29;;;;;;;12.82;4.90;;;;;;;;;;5027927;28;20080;-57
2024/01/31 13:47:54;;;;;;;9.73;4.47;;;;;;;;;;5030382;28;20144;-57
2024/01/31 13:50:19;;;;;;;8.63;4.60;;;;;;;;;;5025978;28;20025;-57
2024/01/31 13:52:44;;;;;;;8.60;4.63;;;;;;;;;;5031466;28;20010;-58
2024/01/31 13:55:09;;;;;;;8.93;4.97;;;;;;;;;;5032369;28;20769;-58
2024/01/31 13:57:34;;;;;;;8.68;4.60;;;;;;;;;;5032354;28;20100;-57
2024/01/31 14:00:02;;;;;;;9.25;4.28;;;;;;;;;;5031991;28;20494;-56
2024/01/31 14:02:27;;;;;;;9.35;4.53;;;;;;;;;;5026864;28;20024;-58
2024/01/31 14:04:53;;;;;;;10.43;5.30;;;;;;;;;;5031810;28;20044;-57
2024/01/31 14:07:18;;;;;;;9.65;5.00;;;;;;;;;;5026345;28;20056;-57
2024/01/31 14:09:43;;;;;;;8.47;5.07;;;;;;;;;;5036467;28;20024;-56